LBBG Airport Information

Runway Information
Runway 04 Length 10499 ft width 148 ft
Elevation 89 ft Threshold 0 ft Heading 44
Runway 22 Length 10499 ft Width 148 ft
Elevation 121 ft Threshold 0 ft Heading 224
Airport Frequencies
Type APP Name APP Frequency 125.1 MHZ
Type ATIS Name ATIS Frequency 120.95 MHZ
Type TWR Name TWR Frequency 118 MHZ
Airport Navaids
Type VOR-DME Name Burgas Frequency 112000 KHZ
Type NDB Name Burgas Frequency 356 KHZ
Airport Weather Information & NOTAM
Deprecated: The each() function is deprecated. This message will be suppressed on further calls in /storage/content/79/1005879/virtualnac.org/public_html/v2/lib/functions.php on line 164 ADDS - METARS form results

(1050 UTC 20 January 2021)
Data provider http://aviationweather.gov/metar/data/
 
METAR text: LBBG 201030Z 26016KT CAVOK 04/M05 Q1024 NOSIG
Conditions at: LBBG (BURGAS , BG) observed 1030 UTC 20 January 2021
Temperature: 4.0°C (39°F)
Dewpoint: -5.0°C (23°F) [RH = 52%]
Pressure (altimeter): 30.24 inches Hg (1024.0 mb)
Winds: from the W (260 degrees) at 18 MPH (16 knots; 8.2 m/s)
Visibility: 6 or more miles (10+ km)
Ceiling: ceiling and visibility are OK
Clouds: unknown
Weather: no significant weather observed at this time

METAR text: LBBG 201000Z 27016KT CAVOK 04/M04 Q1024 NOSIG
Conditions at: LBBG (BURGAS , BG) observed 1000 UTC 20 January 2021
Temperature: 4.0°C (39°F)
Dewpoint: -4.0°C (25°F) [RH = 56%]
Pressure (altimeter): 30.24 inches Hg (1024.0 mb)
Winds: from the W (270 degrees) at 18 MPH (16 knots; 8.2 m/s)
Visibility: 6 or more miles (10+ km)
Ceiling: ceiling and visibility are OK
Clouds: unknown
Weather: no significant weather observed at this time

Forecast for: LBBG (BURGAS , BG)
Text: TAF LBBG 200500Z 2006/2106 27010KT 9999 SCT050
Forecast period: 0600 UTC 20 January 2021 to 0600 UTC 21 January 2021
Forecast type: FROM: standard forecast or significant change
Winds: from the W (270 degrees) at 12 MPH (10 knots; 5.1 m/s)
Visibility: 6 or more miles (10+ km)
Ceiling: at least 12,000 feet AGL
Clouds: scattered clouds at 5000 feet AGL
Weather: no significant weather forecast for this period